Billings, MT (59101)

4:18 PM MST on November 27, 2014 (GMT -0700)
Downtown Billings | Change Station
CLOSE
Current Station
Personal Weather Station
Location: Billings, MT
Elevation: 3127 ft
Nearby Weather Stations

Elev 3127 ft 45.78 °N, 108.50 °W | Updated 21 minutes ago

Clear
Clear
50.1 °F
Feels Like 50.1 °F
N
8.9
Wind Variable Wind from WSW
Gusts 14.1 mph

Today
High -- | Low -- °F
--% Chance of Precip.
Yesterday
High -- | Low -- °F
Precip. -- in
7:29 AM 4:33 PM
Waxing Crescent, 34% visible
Pressure 29.89 in
Visibility 10.0 miles
Clouds Few 9000 ft
Few 15000 ft
Scattered Clouds 20000 ft
Dew Point 33 °F
Humidity 51%
Rainfall -999.00 in
Snow Depth Not available.
UV 0 out of 12
Pollen .10 out of 12
Air Quality Not available.
Flu Activity Not available.
METAR KBIL 272253Z 24015KT 10SM FEW090 FEW150 SCT200 10/M01 A2985 RMK AO2 SLP122 T01001011 $

More Conditions Fewer Conditions

Pressure 29.89 in
Visibility 10.0 miles
Clouds Few 9000 ft
Few 15000 ft
Scattered Clouds 20000 ft
Dew Point 33 °F
Humidity 51%
Rainfall -999.00 in
Snow Depth Not available.
UV 0 out of 12
Pollen .10 out of 12
Air Quality Not available.
Flu Activity Not available.
METAR KBIL 272253Z 24015KT 10SM FEW090 FEW150 SCT200 10/M01 A2985 RMK AO2 SLP122 T01001011 $

More Conditions Fewer Conditions

10-Day Weather Forecast

Almanac

Astronomy

Nov. 27, 2014 Rise Set
Actual Time
Civil Twilight
Nautical Twilight
Astronomical Twilight
Moon
Length of Visible Light
Length of Day
Tomorrow will be .
, % of the Moon is Illuminated

Today's Extremes

State Highs State Lows

Community

WunderPhotos

Upload Photos

1,774,135 photos uploaded!

WunderBlogs® & News

Nearby

Air Quality

  Air Quality AQ Index Pollutant
Not available.

Snow Depth

Station Depth Elevation

Earthquake Activity

City Distance Mag. Time & Date
Minimum magnitude displayed is 2.5.

Coastal Water Temperatures

Place Temperature

Nearby Weather Stations